Terminal Aerodrome Forecast
Issued by NWS Duluth, MN

Home | Current Version | Previous Version | Text Only | Print | Product List | Glossary On
Versions: 1 2 3 4 5 6 7 8 9 10 11 12 13 14 15 16 17 18 19 20 21 22 23 24 25 26 27 28 29 30 31
000
FTUS43 KDLH 031121
TAFINL
TAF
KINL 031121Z 0312/0412 30008KT P6SM BKN040 OVC060
      TEMPO 0312/0315 SCT020 BKN025
     FM031700 31011G17KT P6SM VCSH SCT030 BKN040
     FM040000 28005KT P6SM SCT040 SCT080=

USA.gov is the U.S. government's official web portal to all federal, state and local government web resources and services.